Taiseimaru — JL6483 — position and weather

sailwx.info

Track history (hours):
 
Tides and Currents Weather Stations Pressure Air Temp Water Temp Dewpoint Dewpoint Depression Visibility Wind Speed Wind Dir Waves Ship Positions

Taiseimaru

Last reported at 2015-May-13 13:04 UTC. Time now 2015-May-23 05:52 UTC.
Position N 34°35' E 138°30'.
Warning: this ship's position is 9 days out of date.

Length 84 m; draft 4.7 m.

Type: Cargo ship. MMSI: 431500568.

Date/timePositionNaut miles runAvg speedWind from/ knotsBaromVisibWave heightAir tempDewpointWater temp
2015-May-13 13:04N 34°35' E 138°30'7 9.4
2015-May-13 12:21N 34°35' E 138°38'33 8.2
2015-May-13 08:20N 34°54' E 139°11'8 9.3
2015-May-13 07:31N 34°57' E 139°19'9 8.6
2015-May-13 06:27N 35°02' E 139°29'7 8.0
2015-May-13 05:33N 35°05' E 139°36'8 8.1
2015-May-13 04:33N 35°10' E 139°44'8 8.0
2015-May-13 03:33N 35°18' E 139°44'5 4.5
2015-May-13 02:32N 35°21' E 139°40'0 0.0
2015-May-13 01:32N 35°21' E 139°40'0 0.1
2015-May-13 00:32N 35°21' E 139°40'0 0.0
2015-May-12 23:32N 35°21' E 139°40'0 0.1
2015-May-12 22:33N 35°21' E 139°40'0 0.0
2015-May-12 21:33N 35°21' E 139°40'0 0.0
2015-May-12 20:33N 35°21' E 139°40'0 0.0
2015-May-12 19:33N 35°21' E 139°40'0 0.0
2015-May-12 18:33N 35°21' E 139°40'0 0.0
2015-May-12 17:33N 35°21' E 139°40'0 0.0
2015-May-12 16:33N 35°21' E 139°40'0 0.0
2015-May-12 15:33N 35°21' E 139°40'0 0.0
2015-May-12 14:33N 35°21' E 139°40'0 0.0
2015-May-12 13:32N 35°21' E 139°40'0 0.1
2015-May-12 12:33N 35°21' E 139°40'0 0.1
2015-May-12 11:33N 35°21' E 139°40'0 0.0
2015-May-12 10:33N 35°21' E 139°40'0 0.0
2015-May-12 09:33N 35°21' E 139°40'0 0.0
2015-May-12 08:33N 35°21' E 139°40'0 0.0
2015-May-12 07:33N 35°21' E 139°40'0 0.0
2015-May-12 06:33N 35°21' E 139°40'0 0.0
2015-May-12 05:34N 35°21' E 139°40'0 0.0
2015-May-12 04:33N 35°21' E 139°40'0 0.0
2015-May-12 03:34N 35°21' E 139°40'0 0.0
2015-May-12 02:32N 35°21' E 139°40'0 0.0
2015-May-12 01:31N 35°21' E 139°40'0 0.0
2015-May-12 00:28N 35°21' E 139°40'0 0.1
2015-May-11 23:33N 35°21' E 139°40'0 0.0
2015-May-11 22:34N 35°21' E 139°40'0 0.0
2015-May-11 21:33N 35°21' E 139°40'0 0.0
2015-May-11 20:33N 35°21' E 139°40'0 0.0
2015-May-11 19:34N 35°21' E 139°40'0 0.0
2015-May-11 18:34N 35°21' E 139°40'0 0.0
2015-May-11 17:33N 35°21' E 139°40'0 0.0
2015-May-11 16:33N 35°21' E 139°40'0 0.0
2015-May-11 15:33N 35°21' E 139°40'0 0.0
2015-May-11 14:31N 35°21' E 139°40'0 0.0
2015-May-11 13:28N 35°21' E 139°40'0 0.0
2015-May-11 12:33N 35°21' E 139°40'4 3.9
2015-May-11 11:33N 35°25' E 139°42'5 4.8
2015-May-11 10:33N 35°29' E 139°39'0 0.0
2015-May-11 09:33N 35°29' E 139°39'0 0.0
2015-May-11 08:33N 35°29' E 139°39'0 0.0
2015-May-11 07:33N 35°29' E 139°39'0 0.0
2015-May-11 06:33N 35°29' E 139°39'0 0.0
2015-May-11 05:33N 35°29' E 139°39'0 0.0
2015-May-11 04:33N 35°29' E 139°39'0 0.0
2015-May-11 03:33N 35°29' E 139°39'0 0.0
2015-May-11 02:33N 35°29' E 139°39'0 0.0
2015-May-11 01:33N 35°29' E 139°39'0 0.0
2015-May-11 00:33N 35°29' E 139°39'0 0.0
2015-May-10 23:33N 35°29' E 139°39'2 2.1
2015-May-10 22:33N 35°27' E 139°41'5 4.5
2015-May-10 21:29N 35°24' E 139°45'0 0.0
2015-May-10 20:32N 35°24' E 139°45'0 0.0
2015-May-10 19:32N 35°24' E 139°45'0 0.0
2015-May-10 18:32N 35°24' E 139°45'0 0.0
2015-May-10 17:32N 35°24' E 139°45'0 0.0
2015-May-10 16:31N 35°24' E 139°45'0 0.0
2015-May-10 15:31N 35°24' E 139°45'0 0.0
2015-May-10 14:31N 35°24' E 139°45'0 0.0
2015-May-10 13:31N 35°24' E 139°45'0 0.1
2015-May-10 12:31N 35°24' E 139°45'0 0.0
2015-May-10 11:28N 35°24' E 139°45'0 0.0
2015-May-10 10:31N 35°24' E 139°45'0 0.1
2015-May-10 09:31N 35°24' E 139°45'0 0.1
2015-May-10 08:31N 35°24' E 139°45'0 0.0
2015-May-10 07:31N 35°24' E 139°45'0 0.1
2015-May-10 06:31N 35°24' E 139°45'0 0.0
2015-May-10 05:31N 35°24' E 139°45'0 0.1
2015-May-10 04:31N 35°24' E 139°45'0 0.0
2015-May-10 03:28N 35°24' E 139°45'0 0.0
2015-May-10 02:31N 35°24' E 139°45'0 0.0
2015-May-10 01:31N 35°24' E 139°45'0 0.0
2015-May-10 00:31N 35°24' E 139°45'0 0.0
2015-May-09 23:22N 35°24' E 139°45'0 0.0
2015-May-09 22:31N 35°24' E 139°45'0 0.0
2015-May-09 21:34N 35°24' E 139°45'0 0.0
2015-May-09 20:33N 35°24' E 139°45'5 5.5
2015-May-09 19:33N 35°19' E 139°44'1010.1
2015-May-09 18:33N 35°09' E 139°46'1110.5
2015-May-09 17:33N 34°58' E 139°43'10 9.4
2015-May-09 16:29N 34°52' E 139°51'1010.2
2015-May-09 15:32N 34°55' E 140°03'1110.8
2015-May-09 14:31N 35°01' E 140°14'1110.3
2015-May-09 13:27N 35°08' E 140°24'9 9.5
2015-May-09 12:33N 35°15' E 140°30'1410.3
2015-May-09 11:12N 35°26' E 140°40'  
Track history (hours):
 
Tides and Currents Weather Stations Pressure Air Temp Water Temp Dewpoint Dewpoint Depression Visibility Wind Speed Wind Dir Waves Ship Positions

Taiseimaru

Last reported at 2015-May-13 13:04 UTC. Time now 2015-May-23 05:52 UTC.
Position N 34°35' E 138°30'.
Warning: this ship's position is 9 days out of date.

Length 84 m; draft 4.7 m.

Type: Cargo ship. MMSI: 431500568.

Date/timePositionNaut miles runAvg speedWind from/ knotsBaromVisibWave heightAir tempDewpointWater temp
2015-May-13 13:04N 34°35' E 138°30'7 9.4
2015-May-13 12:21N 34°35' E 138°38'33 8.2
2015-May-13 08:20N 34°54' E 139°11'8 9.3
2015-May-13 07:31N 34°57' E 139°19'9 8.6
2015-May-13 06:27N 35°02' E 139°29'7 8.0
2015-May-13 05:33N 35°05' E 139°36'8 8.1
2015-May-13 04:33N 35°10' E 139°44'8 8.0
2015-May-13 03:33N 35°18' E 139°44'5 4.5
2015-May-13 02:32N 35°21' E 139°40'0 0.0
2015-May-13 01:32N 35°21' E 139°40'0 0.1
2015-May-13 00:32N 35°21' E 139°40'0 0.0
2015-May-12 23:32N 35°21' E 139°40'0 0.1
2015-May-12 22:33N 35°21' E 139°40'0 0.0
2015-May-12 21:33N 35°21' E 139°40'0 0.0
2015-May-12 20:33N 35°21' E 139°40'0 0.0
2015-May-12 19:33N 35°21' E 139°40'0 0.0
2015-May-12 18:33N 35°21' E 139°40'0 0.0
2015-May-12 17:33N 35°21' E 139°40'0 0.0
2015-May-12 16:33N 35°21' E 139°40'0 0.0
2015-May-12 15:33N 35°21' E 139°40'0 0.0
2015-May-12 14:33N 35°21' E 139°40'0 0.0
2015-May-12 13:32N 35°21' E 139°40'0 0.1
2015-May-12 12:33N 35°21' E 139°40'0 0.1
2015-May-12 11:33N 35°21' E 139°40'0 0.0
2015-May-12 10:33N 35°21' E 139°40'0 0.0
2015-May-12 09:33N 35°21' E 139°40'0 0.0
2015-May-12 08:33N 35°21' E 139°40'0 0.0
2015-May-12 07:33N 35°21' E 139°40'0 0.0
2015-May-12 06:33N 35°21' E 139°40'0 0.0
2015-May-12 05:34N 35°21' E 139°40'0 0.0
2015-May-12 04:33N 35°21' E 139°40'0 0.0
2015-May-12 03:34N 35°21' E 139°40'0 0.0
2015-May-12 02:32N 35°21' E 139°40'0 0.0
2015-May-12 01:31N 35°21' E 139°40'0 0.0
2015-May-12 00:28N 35°21' E 139°40'0 0.1
2015-May-11 23:33N 35°21' E 139°40'0 0.0
2015-May-11 22:34N 35°21' E 139°40'0 0.0
2015-May-11 21:33N 35°21' E 139°40'0 0.0
2015-May-11 20:33N 35°21' E 139°40'0 0.0
2015-May-11 19:34N 35°21' E 139°40'0 0.0
2015-May-11 18:34N 35°21' E 139°40'0 0.0
2015-May-11 17:33N 35°21' E 139°40'0 0.0
2015-May-11 16:33N 35°21' E 139°40'0 0.0
2015-May-11 15:33N 35°21' E 139°40'0 0.0
2015-May-11 14:31N 35°21' E 139°40'0 0.0
2015-May-11 13:28N 35°21' E 139°40'0 0.0
2015-May-11 12:33N 35°21' E 139°40'4 3.9
2015-May-11 11:33N 35°25' E 139°42'5 4.8
2015-May-11 10:33N 35°29' E 139°39'0 0.0
2015-May-11 09:33N 35°29' E 139°39'0 0.0
2015-May-11 08:33N 35°29' E 139°39'0 0.0
2015-May-11 07:33N 35°29' E 139°39'0 0.0
2015-May-11 06:33N 35°29' E 139°39'0 0.0
2015-May-11 05:33N 35°29' E 139°39'0 0.0
2015-May-11 04:33N 35°29' E 139°39'0 0.0
2015-May-11 03:33N 35°29' E 139°39'0 0.0
2015-May-11 02:33N 35°29' E 139°39'0 0.0
2015-May-11 01:33N 35°29' E 139°39'0 0.0
2015-May-11 00:33N 35°29' E 139°39'0 0.0
2015-May-10 23:33N 35°29' E 139°39'2 2.1
2015-May-10 22:33N 35°27' E 139°41'5 4.5
2015-May-10 21:29N 35°24' E 139°45'0 0.0
2015-May-10 20:32N 35°24' E 139°45'0 0.0
2015-May-10 19:32N 35°24' E 139°45'0 0.0
2015-May-10 18:32N 35°24' E 139°45'0 0.0
2015-May-10 17:32N 35°24' E 139°45'0 0.0
2015-May-10 16:31N 35°24' E 139°45'0 0.0
2015-May-10 15:31N 35°24' E 139°45'0 0.0
2015-May-10 14:31N 35°24' E 139°45'0 0.0
2015-May-10 13:31N 35°24' E 139°45'0 0.1
2015-May-10 12:31N 35°24' E 139°45'0 0.0
2015-May-10 11:28N 35°24' E 139°45'0 0.0
2015-May-10 10:31N 35°24' E 139°45'0 0.1
2015-May-10 09:31N 35°24' E 139°45'0 0.1
2015-May-10 08:31N 35°24' E 139°45'0 0.0
2015-May-10 07:31N 35°24' E 139°45'0 0.1
2015-May-10 06:31N 35°24' E 139°45'0 0.0
2015-May-10 05:31N 35°24' E 139°45'0 0.1
2015-May-10 04:31N 35°24' E 139°45'0 0.0
2015-May-10 03:28N 35°24' E 139°45'0 0.0
2015-May-10 02:31N 35°24' E 139°45'0 0.0
2015-May-10 01:31N 35°24' E 139°45'0 0.0
2015-May-10 00:31N 35°24' E 139°45'0 0.0
2015-May-09 23:22N 35°24' E 139°45'0 0.0
2015-May-09 22:31N 35°24' E 139°45'0 0.0
2015-May-09 21:34N 35°24' E 139°45'0 0.0
2015-May-09 20:33N 35°24' E 139°45'5 5.5
2015-May-09 19:33N 35°19' E 139°44'1010.1
2015-May-09 18:33N 35°09' E 139°46'1110.5
2015-May-09 17:33N 34°58' E 139°43'10 9.4
2015-May-09 16:29N 34°52' E 139°51'1010.2
2015-May-09 15:32N 34°55' E 140°03'1110.8
2015-May-09 14:31N 35°01' E 140°14'1110.3
2015-May-09 13:27N 35°08' E 140°24'9 9.5
2015-May-09 12:33N 35°15' E 140°30'1410.3
2015-May-09 11:12N 35°26' E 140°40'  

Dump ship's entire track history